createdAt,value
2023-03-21T00:04:21.121Z,10.79
2023-03-21T00:09:42.859Z,10.89
2023-03-21T00:15:10.137Z,10.94
2023-03-21T00:20:34.295Z,10.77
2023-03-21T00:25:56.005Z,10.68
2023-03-21T00:31:19.538Z,10.79
2023-03-21T00:36:41.540Z,10.73
2023-03-21T00:42:03.874Z,10.86
2023-03-21T00:47:26.084Z,10.95
2023-03-21T00:52:47.955Z,10.72
2023-03-21T00:58:10.220Z,10.63
2023-03-21T01:03:42.427Z,10.66
2023-03-21T01:09:04.145Z,10.81
2023-03-21T01:14:25.931Z,10.71
2023-03-21T01:19:51.870Z,10.67
2023-03-21T01:25:22.393Z,10.53
2023-03-21T01:30:49.930Z,10.49
2023-03-21T01:36:19.763Z,10.55
2023-03-21T01:41:44.815Z,10.53
2023-03-21T01:47:12.250Z,10.45
2023-03-21T01:52:39.033Z,10.46
2023-03-21T01:58:07.119Z,10.43
2023-03-21T02:03:37.966Z,10.39
2023-03-21T02:09:04.718Z,10.36
2023-03-21T02:14:29.410Z,10.37
2023-03-21T02:20:33.459Z,10.39
2023-03-21T02:26:09.916Z,10.36
2023-03-21T02:31:37.648Z,10.39
2023-03-21T02:37:07.983Z,10.40
2023-03-21T02:42:43.301Z,10.41
2023-03-21T02:48:20.215Z,10.31
2023-03-21T02:54:16.197Z,10.27
2023-03-21T02:59:44.395Z,10.39
2023-03-21T03:05:21.918Z,10.36
2023-03-21T03:11:12.873Z,10.34
2023-03-21T03:17:14.087Z,10.36
2023-03-21T03:22:49.475Z,10.29
2023-03-21T03:28:15.052Z,10.17
2023-03-21T03:33:41.363Z,10.12
2023-03-21T03:39:08.813Z,10.01
2023-03-21T03:44:30.617Z,10.13
2023-03-21T03:50:03.888Z,10.27
2023-03-21T03:55:28.091Z,10.21
2023-03-21T04:00:51.131Z,10.22
2023-03-21T04:06:13.558Z,10.13
2023-03-21T04:11:35.298Z,10.08
2023-03-21T04:16:57.080Z,10.11
2023-03-21T04:22:18.829Z,10.10
2023-03-21T04:27:40.809Z,10.14
2023-03-21T04:33:02.700Z,10.11
2023-03-21T04:38:30.633Z,9.91
2023-03-21T04:43:52.740Z,9.94
2023-03-21T04:49:14.433Z,9.73
2023-03-21T04:54:36.126Z,9.81
2023-03-21T04:59:57.811Z,9.82
2023-03-21T05:05:19.630Z,9.74
2023-03-21T05:10:41.386Z,9.55
2023-03-21T05:16:03.103Z,9.59
2023-03-21T05:21:29.313Z,9.41
2023-03-21T05:26:52.199Z,9.62
2023-03-21T05:32:13.924Z,9.53
2023-03-21T05:37:36.004Z,9.47
2023-03-21T05:42:57.723Z,9.42
2023-03-21T05:48:19.517Z,9.43
2023-03-21T05:53:41.223Z,9.46
2023-03-21T05:59:02.938Z,9.53
2023-03-21T06:04:24.733Z,9.60
2023-03-21T06:09:46.556Z,9.63
2023-03-21T06:15:08.923Z,9.65
2023-03-21T06:20:30.753Z,9.61
2023-03-21T06:25:52.478Z,9.67
2023-03-21T06:31:17.031Z,9.74
2023-03-21T06:36:38.883Z,9.61
2023-03-21T06:42:01.157Z,9.64
2023-03-21T06:47:22.832Z,9.71
2023-03-21T06:52:44.553Z,9.77
2023-03-21T06:58:06.410Z,9.76
2023-03-21T07:03:28.500Z,9.79
2023-03-21T07:08:50.265Z,9.79
2023-03-21T07:14:12.079Z,9.90
2023-03-21T07:19:33.861Z,9.99
2023-03-21T07:25:04.402Z,10.15
2023-03-21T07:30:27.123Z,10.40
2023-03-21T07:35:53.493Z,10.44
2023-03-21T07:46:37.899Z,10.44
2023-03-21T07:52:02.984Z,10.49
2023-03-21T07:57:27.518Z,10.64
2023-03-21T08:02:57.038Z,10.70
2023-03-21T08:08:20.366Z,10.82
2023-03-21T08:13:42.170Z,10.83
2023-03-21T08:19:04.153Z,10.99
2023-03-21T08:24:27.097Z,11.09
2023-03-21T08:29:48.880Z,11.13
2023-03-21T08:35:13.603Z,11.31
2023-03-21T08:40:35.911Z,11.44
2023-03-21T08:45:57.835Z,11.46
2023-03-21T08:51:20.050Z,11.39
2023-03-21T08:56:41.776Z,11.47
2023-03-21T09:02:04.007Z,11.57
2023-03-21T09:07:27.880Z,11.67
2023-03-21T09:12:52.148Z,11.76
2023-03-21T09:18:15.055Z,11.75
2023-03-21T09:23:37.351Z,11.96
2023-03-21T09:29:00.802Z,12.06
2023-03-21T09:34:22.732Z,12.25
2023-03-21T09:39:45.355Z,12.34
2023-03-21T09:45:20.813Z,12.46
2023-03-21T09:50:43.235Z,12.58
2023-03-21T09:56:06.821Z,12.70
2023-03-21T10:01:32.900Z,12.89
2023-03-21T10:07:02.110Z,13.06
2023-03-21T10:12:25.669Z,13.18
2023-03-21T10:18:01.412Z,13.34
2023-03-21T10:23:28.622Z,13.40
2023-03-21T10:28:53.395Z,13.47
2023-03-21T10:34:24.280Z,13.68
2023-03-21T10:39:49.068Z,13.86
2023-03-21T10:45:18.039Z,13.88
2023-03-21T10:50:41.130Z,14.17
2023-03-21T10:56:09.157Z,14.12
2023-03-21T11:01:37.590Z,14.17
2023-03-21T11:07:09.565Z,14.25
2023-03-21T11:12:40.643Z,14.30
2023-03-21T11:18:15.754Z,14.33
2023-03-21T11:23:43.897Z,14.37
2023-03-21T11:29:27.608Z,14.41
2023-03-21T11:35:02.083Z,14.42
2023-03-21T11:40:32.424Z,14.46
2023-03-21T11:46:14.565Z,14.48
2023-03-21T11:51:54.700Z,14.47
2023-03-21T11:57:53.441Z,14.48
2023-03-21T12:03:45.321Z,14.50
2023-03-21T12:09:17.692Z,14.51
2023-03-21T12:15:02.221Z,14.49
2023-03-21T12:20:35.323Z,14.50
2023-03-21T12:26:03.052Z,14.50
2023-03-21T12:31:46.993Z,14.52
2023-03-21T12:37:19.715Z,14.49
2023-03-21T12:42:50.585Z,14.51
2023-03-21T12:48:30.322Z,14.59
2023-03-21T12:54:08.764Z,14.65
2023-03-21T12:59:42.217Z,14.65
2023-03-21T13:05:28.329Z,14.74
2023-03-21T13:10:50.081Z,14.82
2023-03-21T13:16:14.699Z,14.86
2023-03-21T13:21:39.166Z,14.85
2023-03-21T13:27:08.975Z,14.84
2023-03-21T13:32:34.459Z,14.84
2023-03-21T13:38:12.904Z,14.84
2023-03-21T13:43:53.014Z,14.85
2023-03-21T13:49:26.762Z,14.85
2023-03-21T13:54:53.147Z,14.85
2023-03-21T14:00:27.106Z,14.86
2023-03-21T14:05:50.713Z,14.87
2023-03-21T14:11:18.591Z,14.88
2023-03-21T14:16:41.383Z,14.87
2023-03-21T14:22:05.075Z,14.87
2023-03-21T14:27:31.504Z,14.88
2023-03-21T14:33:07.023Z,14.86
2023-03-21T14:38:34.776Z,14.86
2023-03-21T14:44:14.260Z,14.87
2023-03-21T14:49:37.711Z,14.84
2023-03-21T14:55:11.490Z,14.88
2023-03-21T15:00:36.340Z,14.89
2023-03-21T15:05:59.166Z,14.89
2023-03-21T15:11:29.725Z,14.89
2023-03-21T15:16:52.816Z,14.90
2023-03-21T15:22:37.550Z,14.91
2023-03-21T15:28:00.404Z,14.92
2023-03-21T15:33:25.465Z,14.92
2023-03-21T15:38:48.941Z,14.88
2023-03-21T15:44:14.755Z,14.78
2023-03-21T15:49:41.778Z,14.78
2023-03-21T15:55:21.524Z,14.70
2023-03-21T16:00:49.824Z,14.61
2023-03-21T16:06:12.437Z,14.60
2023-03-21T16:11:40.437Z,14.54
2023-03-21T16:17:22.491Z,14.49
2023-03-21T16:22:44.263Z,14.44
2023-03-21T16:28:14.145Z,14.38
2023-03-21T16:33:35.851Z,14.26
2023-03-21T16:38:58.621Z,14.20
2023-03-21T16:44:20.535Z,14.13
2023-03-21T16:49:42.912Z,14.15
2023-03-21T16:55:04.972Z,14.10
2023-03-21T17:00:29.051Z,14.04
2023-03-21T17:05:50.789Z,14.09
2023-03-21T17:11:16.396Z,14.11
2023-03-21T17:16:43.019Z,14.12
2023-03-21T17:22:05.248Z,14.07
2023-03-21T17:27:27.080Z,14.10
2023-03-21T17:32:50.164Z,14.15
2023-03-21T17:38:16.743Z,14.00
2023-03-21T17:43:38.536Z,13.87
2023-03-21T17:49:00.573Z,13.91
2023-03-21T17:54:22.280Z,13.88
2023-03-21T17:59:44.130Z,13.78
2023-03-21T18:05:06.795Z,13.80
2023-03-21T18:10:28.670Z,13.69
2023-03-21T18:15:50.728Z,13.70
2023-03-21T18:21:19.514Z,13.54
2023-03-21T18:26:43.497Z,13.46
2023-03-21T18:32:07.739Z,13.49
2023-03-21T18:37:35.290Z,13.43
2023-03-21T18:43:49.998Z,13.38
2023-03-21T18:48:39.459Z,13.39
2023-03-21T18:54:01.801Z,13.31
2023-03-21T18:59:23.609Z,13.28
2023-03-21T19:04:45.589Z,13.29
2023-03-21T19:10:19.953Z,13.21
2023-03-21T19:15:42.333Z,13.30
2023-03-21T19:21:05.567Z,13.23
2023-03-21T19:26:27.788Z,13.31
2023-03-21T19:31:51.518Z,13.32
2023-03-21T19:37:13.520Z,13.15
2023-03-21T19:42:36.525Z,13.28
2023-03-21T19:47:58.514Z,13.28
2023-03-21T19:53:20.699Z,13.22
2023-03-21T19:58:42.439Z,13.03
2023-03-21T20:04:05.274Z,13.03
2023-03-21T20:09:52.338Z,12.98
2023-03-21T20:15:17.573Z,12.95
2023-03-21T20:20:42.677Z,12.96
2023-03-21T20:26:13.337Z,13.00
2023-03-21T20:31:35.425Z,12.97
2023-03-21T20:36:58.333Z,13.05
2023-03-21T20:42:20.219Z,13.02
2023-03-21T20:47:43.280Z,12.89
2023-03-21T20:53:07.531Z,12.85
2023-03-21T20:58:57.190Z,12.82
2023-03-21T21:04:19.746Z,12.81
2023-03-21T21:09:42.902Z,12.83
2023-03-21T21:15:08.377Z,12.77
2023-03-21T21:20:33.304Z,12.74
2023-03-21T21:25:55.232Z,12.70
2023-03-21T21:31:18.484Z,12.71
2023-03-21T21:36:40.327Z,12.72
2023-03-21T21:42:02.529Z,12.65
2023-03-21T21:47:24.263Z,12.60
2023-03-21T21:52:52.558Z,12.60
2023-03-21T21:58:21.268Z,12.58
2023-03-21T22:03:45.759Z,12.51
2023-03-21T22:09:07.786Z,12.51
2023-03-21T22:14:29.671Z,12.48
2023-03-21T22:20:04.703Z,12.50
2023-03-21T22:25:27.413Z,12.46
2023-03-21T22:30:49.213Z,12.41
2023-03-21T22:36:11.588Z,12.43
2023-03-21T22:41:33.402Z,12.44
2023-03-21T22:46:55.380Z,12.42
2023-03-21T22:52:17.109Z,12.31
2023-03-21T22:57:38.962Z,12.29
2023-03-21T23:03:01.008Z,12.30
2023-03-21T23:08:23.582Z,12.18
2023-03-21T23:13:46.781Z,12.17
2023-03-21T23:19:10.437Z,12.06
2023-03-21T23:24:32.295Z,11.99
2023-03-21T23:29:54.249Z,11.81
2023-03-21T23:35:16.238Z,11.91
2023-03-21T23:40:41.439Z,11.88
2023-03-21T23:46:04.074Z,11.90
2023-03-21T23:51:25.972Z,11.95
2023-03-21T23:56:47.660Z,11.78
